sensor_id;sensor_type;location;lat;lon;timestamp;pressure;altitude;pressure_sealevel;temperature;humidity
11001;BME280;5553;48.506;8.870;2023-01-19T00:46:17;95453.78;;;-6.57;100.00
11001;BME280;5553;48.506;8.870;2023-01-19T05:15:18;95511.69;;;-7.01;100.00
11001;BME280;5553;48.506;8.870;2023-01-19T05:17:47;95512.63;;;-7.02;100.00
11001;BME280;5553;48.506;8.870;2023-01-19T05:20:15;95518.28;;;-7.10;100.00
11001;BME280;5553;48.506;8.870;2023-01-19T05:22:47;95516.09;;;-7.27;100.00
11001;BME280;5553;48.506;8.870;2023-01-19T05:25:16;95519.75;;;-7.19;100.00
11001;BME280;5553;48.506;8.870;2023-01-19T05:27:44;95526.97;;;-7.36;100.00
11001;BME280;5553;48.506;8.870;2023-01-19T05:30:13;95530.09;;;-7.70;100.00
11001;BME280;5553;48.506;8.870;2023-01-19T05:32:45;95520.91;;;-7.85;100.00
11001;BME280;5553;48.506;8.870;2023-01-19T05:35:13;95527.44;;;-7.81;100.00
11001;BME280;5553;48.506;8.870;2023-01-19T05:37:42;95532.34;;;-7.91;100.00
11001;BME280;5553;48.506;8.870;2023-01-19T05:40:11;95536.25;;;-7.85;100.00
11001;BME280;5553;48.506;8.870;2023-01-19T05:42:40;95539.31;;;-7.80;100.00
11001;BME280;5553;48.506;8.870;2023-01-19T05:45:09;95533.81;;;-7.99;100.00
11001;BME280;5553;48.506;8.870;2023-01-19T05:47:37;95534.72;;;-8.00;100.00
11001;BME280;5553;48.506;8.870;2023-01-19T05:50:09;95533.69;;;-8.11;100.00
11001;BME280;5553;48.506;8.870;2023-01-19T05:52:37;95533.88;;;-8.26;100.00
11001;BME280;5553;48.506;8.870;2023-01-19T05:55:07;95538.50;;;-8.06;100.00
11001;BME280;5553;48.506;8.870;2023-01-19T05:57:35;95549.38;;;-8.02;100.00
11001;BME280;5553;48.506;8.870;2023-01-19T06:00:04;95547.84;;;-7.92;100.00
11001;BME280;5553;48.506;8.870;2023-01-19T06:02:33;95563.41;;;-7.70;100.00
11001;BME280;5553;48.506;8.870;2023-01-19T06:05:02;95553.47;;;-7.74;100.00
11001;BME280;5553;48.506;8.870;2023-01-19T06:07:33;95555.72;;;-7.82;100.00
11001;BME280;5553;48.506;8.870;2023-01-19T06:10:01;95559.00;;;-7.68;100.00
11001;BME280;5553;48.506;8.870;2023-01-19T06:12:29;95557.03;;;-7.77;100.00
11001;BME280;5553;48.506;8.870;2023-01-19T06:14:57;95558.38;;;-7.71;100.00
11001;BME280;5553;48.506;8.870;2023-01-19T06:17:26;95561.03;;;-7.73;100.00
11001;BME280;5553;48.506;8.870;2023-01-19T06:19:54;95564.31;;;-7.83;100.00
11001;BME280;5553;48.506;8.870;2023-01-19T06:22:22;95561.44;;;-8.04;100.00
11001;BME280;5553;48.506;8.870;2023-01-19T06:24:53;95566.56;;;-7.92;100.00
11001;BME280;5553;48.506;8.870;2023-01-19T06:27:22;95567.50;;;-8.05;100.00
11001;BME280;5553;48.506;8.870;2023-01-19T06:29:50;95567.16;;;-8.14;100.00
11001;BME280;5553;48.506;8.870;2023-01-19T06:32:18;95564.00;;;-8.04;100.00
11001;BME280;5553;48.506;8.870;2023-01-19T06:34:47;95559.38;;;-8.12;100.00
11001;BME280;5553;48.506;8.870;2023-01-19T06:37:15;95565.25;;;-7.84;100.00
11001;BME280;5553;48.506;8.870;2023-01-19T06:39:43;95564.94;;;-7.80;100.00
11001;BME280;5553;48.506;8.870;2023-01-19T06:42:14;95559.19;;;-7.83;100.00
11001;BME280;5553;48.506;8.870;2023-01-19T06:44:42;95562.28;;;-7.78;100.00
11001;BME280;5553;48.506;8.870;2023-01-19T06:47:11;95564.81;;;-7.53;100.00
11001;BME280;5553;48.506;8.870;2023-01-19T06:49:40;95567.38;;;-7.40;100.00
11001;BME280;5553;48.506;8.870;2023-01-19T06:52:08;95566.09;;;-7.22;100.00
11001;BME280;5553;48.506;8.870;2023-01-19T06:54:40;95572.69;;;-7.18;100.00
11001;BME280;5553;48.506;8.870;2023-01-19T06:57:08;95572.06;;;-7.21;100.00
11001;BME280;5553;48.506;8.870;2023-01-19T06:59:39;95568.28;;;-7.28;100.00
11001;BME280;5553;48.506;8.870;2023-01-19T07:02:08;95577.41;;;-7.24;100.00
11001;BME280;5553;48.506;8.870;2023-01-19T07:04:38;95574.28;;;-7.04;100.00
11001;BME280;5553;48.506;8.870;2023-01-19T07:07:06;95580.13;;;-7.15;100.00
11001;BME280;5553;48.506;8.870;2023-01-19T07:09:34;95576.06;;;-7.30;100.00
11001;BME280;5553;48.506;8.870;2023-01-19T07:12:03;95578.84;;;-7.33;100.00
11001;BME280;5553;48.506;8.870;2023-01-19T07:14:33;95580.19;;;-7.53;100.00
11001;BME280;5553;48.506;8.870;2023-01-19T07:17:04;95571.91;;;-7.56;100.00
11001;BME280;5553;48.506;8.870;2023-01-19T07:19:33;95571.06;;;-7.70;100.00
11001;BME280;5553;48.506;8.870;2023-01-19T07:22:01;95568.94;;;-7.76;100.00
11001;BME280;5553;48.506;8.870;2023-01-19T07:24:30;95559.09;;;-7.56;100.00
11001;BME280;5553;48.506;8.870;2023-01-19T07:26:59;95569.84;;;-7.51;100.00
11001;BME280;5553;48.506;8.870;2023-01-19T07:29:27;95567.78;;;-7.46;100.00
11001;BME280;5553;48.506;8.870;2023-01-19T07:31:55;95564.53;;;-7.48;100.00
11001;BME280;5553;48.506;8.870;2023-01-19T07:34:26;95566.34;;;-7.37;100.00
11001;BME280;5553;48.506;8.870;2023-01-19T07:36:55;95576.41;;;-7.47;100.00
11001;BME280;5553;48.506;8.870;2023-01-19T07:39:23;95572.91;;;-7.59;100.00
11001;BME280;5553;48.506;8.870;2023-01-19T07:41:52;95579.78;;;-7.59;100.00
11001;BME280;5553;48.506;8.870;2023-01-19T07:44:20;95576.72;;;-7.65;100.00
11001;BME280;5553;48.506;8.870;2023-01-19T07:46:48;95587.50;;;-7.72;100.00
11001;BME280;5553;48.506;8.870;2023-01-19T07:49:17;95583.69;;;-7.67;100.00
11001;BME280;5553;48.506;8.870;2023-01-19T07:51:48;95589.34;;;-7.61;100.00
11001;BME280;5553;48.506;8.870;2023-01-19T07:54:16;95590.25;;;-7.63;100.00
11001;BME280;5553;48.506;8.870;2023-01-19T07:56:45;95592.19;;;-7.53;100.00
11001;BME280;5553;48.506;8.870;2023-01-19T07:59:13;95593.13;;;-7.42;100.00
11001;BME280;5553;48.506;8.870;2023-01-19T08:01:41;95598.09;;;-7.15;100.00
11001;BME280;5553;48.506;8.870;2023-01-19T08:04:09;95593.13;;;-6.92;100.00
11001;BME280;5553;48.506;8.870;2023-01-19T08:06:38;95596.25;;;-6.76;100.00
11001;BME280;5553;48.506;8.870;2023-01-19T08:09:10;95593.81;;;-6.53;100.00
11001;BME280;5553;48.506;8.870;2023-01-19T08:11:38;95588.16;;;-6.46;100.00
11001;BME280;5553;48.506;8.870;2023-01-19T08:14:06;95590.16;;;-6.38;100.00
11001;BME280;5553;48.506;8.870;2023-01-19T08:16:35;95580.19;;;-6.18;100.00
11001;BME280;5553;48.506;8.870;2023-01-19T08:19:03;95578.31;;;-6.16;100.00
11001;BME280;5553;48.506;8.870;2023-01-19T08:21:32;95577.44;;;-6.04;100.00
11001;BME280;5553;48.506;8.870;2023-01-19T08:24:00;95599.94;;;-5.16;100.00
11001;BME280;5553;48.506;8.870;2023-01-19T08:26:33;95585.56;;;-4.85;100.00
11001;BME280;5553;48.506;8.870;2023-01-19T08:29:03;95581.09;;;-5.84;100.00
11001;BME280;5553;48.506;8.870;2023-01-19T08:31:32;95579.38;;;-5.50;100.00
11001;BME280;5553;48.506;8.870;2023-01-19T08:34:00;95585.88;;;-4.79;100.00
11001;BME280;5553;48.506;8.870;2023-01-19T08:36:28;95582.00;;;-4.30;100.00
11001;BME280;5553;48.506;8.870;2023-01-19T08:38:57;95573.66;;;-4.22;100.00
11001;BME280;5553;48.506;8.870;2023-01-19T08:41:25;95572.00;;;-3.91;100.00
11001;BME280;5553;48.506;8.870;2023-01-19T08:43:56;95565.34;;;-4.46;100.00
11001;BME280;5553;48.506;8.870;2023-01-19T08:46:24;95562.47;;;-4.64;100.00
11001;BME280;5553;48.506;8.870;2023-01-19T08:48:53;95568.91;;;-4.26;100.00
11001;BME280;5553;48.506;8.870;2023-01-19T08:51:21;95560.66;;;-4.53;100.00
11001;BME280;5553;48.506;8.870;2023-01-19T08:53:49;95562.38;;;-4.42;100.00
11001;BME280;5553;48.506;8.870;2023-01-19T08:56:18;95569.81;;;-4.28;100.00
11001;BME280;5553;48.506;8.870;2023-01-19T08:58:46;95570.34;;;-4.45;100.00
11001;BME280;5553;48.506;8.870;2023-01-19T09:01:17;95578.09;;;-3.92;100.00
11001;BME280;5553;48.506;8.870;2023-01-19T09:03:46;95570.53;;;-3.84;100.00
11001;BME280;5553;48.506;8.870;2023-01-19T09:06:16;95567.94;;;-4.25;100.00
11001;BME280;5553;48.506;8.870;2023-01-19T09:08:45;95575.00;;;-3.44;100.00
11001;BME280;5553;48.506;8.870;2023-01-19T09:11:14;95569.63;;;-3.83;100.00
11001;BME280;5553;48.506;8.870;2023-01-19T09:13:44;95566.97;;;-3.71;100.00
11001;BME280;5553;48.506;8.870;2023-01-19T09:16:12;95562.81;;;-3.84;100.00
11001;BME280;5553;48.506;8.870;2023-01-19T09:18:43;95569.84;;;-3.13;100.00
11001;BME280;5553;48.506;8.870;2023-01-19T09:21:12;95573.88;;;-2.90;100.00
11001;BME280;5553;48.506;8.870;2023-01-19T09:23:40;95563.91;;;-3.04;100.00
11001;BME280;5553;48.506;8.870;2023-01-19T09:26:09;95564.41;;;-2.50;100.00
11001;BME280;5553;48.506;8.870;2023-01-19T09:28:38;95557.84;;;-2.74;100.00
11001;BME280;5553;48.506;8.870;2023-01-19T09:31:07;95564.69;;;-2.63;100.00
11001;BME280;5553;48.506;8.870;2023-01-19T09:33:35;95567.84;;;-1.92;100.00
11001;BME280;5553;48.506;8.870;2023-01-19T09:36:06;95555.16;;;-2.72;100.00
11001;BME280;5553;48.506;8.870;2023-01-19T09:38:35;95566.03;;;-1.72;100.00
11001;BME280;5553;48.506;8.870;2023-01-19T09:41:13;95563.19;;;-2.66;100.00
11001;BME280;5553;48.506;8.870;2023-01-19T09:43:46;95581.16;;;-2.95;100.00
11001;BME280;5553;48.506;8.870;2023-01-19T09:46:18;95584.00;;;-2.98;100.00
11001;BME280;5553;48.506;8.870;2023-01-19T09:48:50;95591.50;;;-3.25;100.00
11001;BME280;5553;48.506;8.870;2023-01-19T09:51:25;95589.09;;;-3.48;100.00
11001;BME280;5553;48.506;8.870;2023-01-19T09:54:02;95591.28;;;-3.43;100.00
11001;BME280;5553;48.506;8.870;2023-01-19T09:56:32;95586.94;;;-3.43;100.00
11001;BME280;5553;48.506;8.870;2023-01-19T09:59:04;95597.88;;;-3.29;100.00
11001;BME280;5553;48.506;8.870;2023-01-19T10:04:35;95607.44;;;-3.20;100.00
11001;BME280;5553;48.506;8.870;2023-01-19T10:07:12;95604.16;;;-3.22;100.00
11001;BME280;5553;48.506;8.870;2023-01-19T10:13:17;95604.91;;;-3.01;100.00
11001;BME280;5553;48.506;8.870;2023-01-19T10:15:54;95606.22;;;-2.86;100.00
11001;BME280;5553;48.506;8.870;2023-01-19T10:18:26;95590.97;;;-2.89;100.00
11001;BME280;5553;48.506;8.870;2023-01-19T10:21:03;95598.38;;;-3.05;100.00
11001;BME280;5553;48.506;8.870;2023-01-19T10:23:45;95599.25;;;-2.95;100.00
11001;BME280;5553;48.506;8.870;2023-01-19T10:26:16;95592.84;;;-3.00;100.00
11001;BME280;5553;48.506;8.870;2023-01-19T10:28:47;95600.22;;;-2.86;100.00
11001;BME280;5553;48.506;8.870;2023-01-19T10:31:19;95600.81;;;-2.73;100.00
11001;BME280;5553;48.506;8.870;2023-01-19T10:33:51;95593.34;;;-2.76;100.00
11001;BME280;5553;48.506;8.870;2023-01-19T10:36:23;95590.75;;;-2.76;100.00
11001;BME280;5553;48.506;8.870;2023-01-19T10:38:55;95583.47;;;-2.51;100.00
11001;BME280;5553;48.506;8.870;2023-01-19T10:41:27;95580.09;;;-2.32;100.00
11001;BME280;5553;48.506;8.870;2023-01-19T10:44:00;95575.19;;;-2.06;100.00
11001;BME280;5553;48.506;8.870;2023-01-19T10:46:34;95567.72;;;-1.80;100.00
11001;BME280;5553;48.506;8.870;2023-01-19T10:49:04;95564.31;;;-1.91;100.00
11001;BME280;5553;48.506;8.870;2023-01-19T10:51:45;95556.34;;;-1.13;100.00
11001;BME280;5553;48.506;8.870;2023-01-19T10:54:16;95552.56;;;-0.81;100.00
11001;BME280;5553;48.506;8.870;2023-01-19T10:56:50;95546.53;;;-0.36;100.00
11001;BME280;5553;48.506;8.870;2023-01-19T10:59:31;95527.50;;;-0.45;100.00
11001;BME280;5553;48.506;8.870;2023-01-19T11:02:13;95533.28;;;-1.06;100.00
11001;BME280;5553;48.506;8.870;2023-01-19T11:04:43;95540.91;;;-0.50;100.00
11001;BME280;5553;48.506;8.870;2023-01-19T11:07:15;95540.06;;;0.21;100.00
11001;BME280;5553;48.506;8.870;2023-01-19T11:09:47;95526.53;;;-0.08;100.00
11001;BME280;5553;48.506;8.870;2023-01-19T11:12:18;95532.09;;;-0.57;100.00
11001;BME280;5553;48.506;8.870;2023-01-19T11:14:48;95543.13;;;-0.82;100.00
11001;BME280;5553;48.506;8.870;2023-01-19T11:17:20;95535.00;;;-0.06;100.00
11001;BME280;5553;48.506;8.870;2023-01-19T11:19:55;95531.63;;;-0.98;100.00
11001;BME280;5553;48.506;8.870;2023-01-19T11:22:26;95551.00;;;-1.39;100.00
11001;BME280;5553;48.506;8.870;2023-01-19T11:25:01;95561.63;;;-1.42;100.00
11001;BME280;5553;48.506;8.870;2023-01-19T11:27:33;95571.22;;;-0.78;100.00
11001;BME280;5553;48.506;8.870;2023-01-19T11:30:06;95560.19;;;0.02;100.00
11001;BME280;5553;48.506;8.870;2023-01-19T11:32:42;95544.22;;;0.58;100.00
11001;BME280;5553;48.506;8.870;2023-01-19T11:35:31;95531.47;;;0.73;100.00
11001;BME280;5553;48.506;8.870;2023-01-19T11:38:12;95521.28;;;-0.34;100.00
11001;BME280;5553;48.506;8.870;2023-01-19T11:40:50;95539.88;;;-0.39;100.00
11001;BME280;5553;48.506;8.870;2023-01-19T11:43:20;95541.28;;;-0.44;100.00
11001;BME280;5553;48.506;8.870;2023-01-19T11:45:49;95548.22;;;-0.63;100.00
11001;BME280;5553;48.506;8.870;2023-01-19T11:48:24;95547.84;;;-0.68;100.00
11001;BME280;5553;48.506;8.870;2023-01-19T11:50:54;95553.16;;;-0.69;100.00
11001;BME280;5553;48.506;8.870;2023-01-19T11:53:26;95551.00;;;-0.74;100.00
11001;BME280;5553;48.506;8.870;2023-01-19T11:56:00;95561.41;;;-0.84;100.00
11001;BME280;5553;48.506;8.870;2023-01-19T11:58:30;95559.25;;;-0.88;100.00
11001;BME280;5553;48.506;8.870;2023-01-19T12:01:04;95566.59;;;-0.84;100.00
11001;BME280;5553;48.506;8.870;2023-01-19T12:03:37;95569.34;;;-0.85;100.00
11001;BME280;5553;48.506;8.870;2023-01-19T12:06:10;95565.28;;;-0.98;100.00
11001;BME280;5553;48.506;8.870;2023-01-19T12:08:42;95558.88;;;-0.93;100.00
11001;BME280;5553;48.506;8.870;2023-01-19T12:11:17;95573.16;;;-0.62;100.00
11001;BME280;5553;48.506;8.870;2023-01-19T12:13:48;95566.34;;;-0.90;100.00
11001;BME280;5553;48.506;8.870;2023-01-19T12:16:18;95560.59;;;-0.84;100.00
11001;BME280;5553;48.506;8.870;2023-01-19T12:18:50;95561.25;;;-0.82;100.00
11001;BME280;5553;48.506;8.870;2023-01-19T12:21:20;95567.84;;;-0.88;100.00
11001;BME280;5553;48.506;8.870;2023-01-19T12:23:58;95558.25;;;-0.78;100.00
11001;BME280;5553;48.506;8.870;2023-01-19T12:26:34;95563.16;;;-0.75;100.00
11001;BME280;5553;48.506;8.870;2023-01-19T12:29:09;95558.56;;;-0.63;100.00
11001;BME280;5553;48.506;8.870;2023-01-19T12:31:39;95566.13;;;-0.52;100.00
11001;BME280;5553;48.506;8.870;2023-01-19T12:34:26;95565.28;;;-0.42;100.00
11001;BME280;5553;48.506;8.870;2023-01-19T12:36:59;95560.75;;;-0.40;100.00
11001;BME280;5553;48.506;8.870;2023-01-19T12:39:29;95562.78;;;-0.62;100.00
11001;BME280;5553;48.506;8.870;2023-01-19T12:42:10;95568.59;;;-0.50;100.00
11001;BME280;5553;48.506;8.870;2023-01-19T12:44:40;95565.03;;;-0.49;100.00
11001;BME280;5553;48.506;8.870;2023-01-19T12:47:19;95575.56;;;-0.51;100.00
11001;BME280;5553;48.506;8.870;2023-01-19T12:49:51;95569.34;;;-0.22;100.00
11001;BME280;5553;48.506;8.870;2023-01-19T12:52:29;95566.94;;;-0.06;100.00
11001;BME280;5553;48.506;8.870;2023-01-19T12:55:19;95556.06;;;0.17;100.00
11001;BME280;5553;48.506;8.870;2023-01-19T12:57:55;95543.34;;;0.06;100.00
11001;BME280;5553;48.506;8.870;2023-01-19T13:00:30;95544.13;;;-0.20;100.00
11001;BME280;5553;48.506;8.870;2023-01-19T13:03:00;95546.59;;;-0.28;100.00
11001;BME280;5553;48.506;8.870;2023-01-19T13:05:56;95552.38;;;-0.34;100.00
11001;BME280;5553;48.506;8.870;2023-01-19T13:08:57;95545.53;;;-0.71;100.00
11001;BME280;5553;48.506;8.870;2023-01-19T13:11:26;95560.19;;;-0.62;100.00
11001;BME280;5553;48.506;8.870;2023-01-19T13:17:05;95571.34;;;-0.79;100.00
11001;BME280;5553;48.506;8.870;2023-01-19T13:19:46;95564.16;;;-0.85;100.00
11001;BME280;5553;48.506;8.870;2023-01-19T13:25:33;95575.75;;;-0.89;100.00
11001;BME280;5553;48.506;8.870;2023-01-19T13:28:07;95580.44;;;-1.03;100.00
11001;BME280;5553;48.506;8.870;2023-01-19T13:30:49;95580.06;;;-1.08;100.00
11001;BME280;5553;48.506;8.870;2023-01-19T13:33:21;95576.09;;;-1.02;100.00
11001;BME280;5553;48.506;8.870;2023-01-19T13:35:52;95581.28;;;-1.02;100.00
11001;BME280;5553;48.506;8.870;2023-01-19T13:38:23;95590.25;;;-1.06;100.00
11001;BME280;5553;48.506;8.870;2023-01-19T13:40:55;95588.78;;;-1.09;100.00
11001;BME280;5553;48.506;8.870;2023-01-19T13:43:30;95588.19;;;-1.03;100.00
11001;BME280;5553;48.506;8.870;2023-01-19T13:45:59;95588.78;;;-1.09;100.00
11001;BME280;5553;48.506;8.870;2023-01-19T15:13:52;95605.72;;;-1.24;100.00
11001;BME280;5553;48.506;8.870;2023-01-19T15:16:21;95601.09;;;-1.30;100.00
11001;BME280;5553;48.506;8.870;2023-01-19T15:18:50;95596.75;;;-1.30;100.00
11001;BME280;5553;48.506;8.870;2023-01-19T15:21:20;95601.63;;;-1.27;100.00
11001;BME280;5553;48.506;8.870;2023-01-19T15:23:51;95595.38;;;-1.34;100.00
11001;BME280;5553;48.506;8.870;2023-01-19T15:26:21;95594.28;;;-1.31;100.00
11001;BME280;5553;48.506;8.870;2023-01-19T15:28:54;95598.41;;;-1.38;100.00
11001;BME280;5553;48.506;8.870;2023-01-19T15:31:24;95594.56;;;-1.34;100.00
11001;BME280;5553;48.506;8.870;2023-01-19T15:33:53;95600.03;;;-1.37;100.00
11001;BME280;5553;48.506;8.870;2023-01-19T15:36:21;95602.22;;;-1.42;100.00
11001;BME280;5553;48.506;8.870;2023-01-19T15:38:51;95601.97;;;-1.39;100.00
11001;BME280;5553;48.506;8.870;2023-01-19T15:41:23;95601.97;;;-1.39;100.00
11001;BME280;5553;48.506;8.870;2023-01-19T15:43:54;95604.13;;;-1.35;100.00
11001;BME280;5553;48.506;8.870;2023-01-19T15:46:23;95608.75;;;-1.38;100.00
11001;BME280;5553;48.506;8.870;2023-01-19T15:48:52;95605.63;;;-1.42;100.00
11001;BME280;5553;48.506;8.870;2023-01-19T15:51:23;95603.19;;;-1.44;100.00
11001;BME280;5553;48.506;8.870;2023-01-19T15:53:53;95596.91;;;-1.41;100.00
11001;BME280;5553;48.506;8.870;2023-01-19T15:56:24;95598.03;;;-1.44;100.00
11001;BME280;5553;48.506;8.870;2023-01-19T15:58:55;95600.59;;;-1.44;100.00
11001;BME280;5553;48.506;8.870;2023-01-19T16:01:26;95592.97;;;-1.45;100.00
11001;BME280;5553;48.506;8.870;2023-01-19T16:03:57;95597.88;;;-1.52;100.00
11001;BME280;5553;48.506;8.870;2023-01-19T16:06:27;95591.63;;;-1.59;100.00
11001;BME280;5553;48.506;8.870;2023-01-19T16:08:56;95591.63;;;-1.59;100.00
11001;BME280;5553;48.506;8.870;2023-01-19T16:11:27;95598.44;;;-1.58;100.00
11001;BME280;5553;48.506;8.870;2023-01-19T16:13:58;95597.63;;;-1.58;100.00
11001;BME280;5553;48.506;8.870;2023-01-19T16:16:26;95602.94;;;-1.60;100.00
11001;BME280;5553;48.506;8.870;2023-01-19T16:18:55;95601.03;;;-1.58;100.00
11001;BME280;5553;48.506;8.870;2023-01-19T16:21:24;95599.13;;;-1.56;100.00
11001;BME280;5553;48.506;8.870;2023-01-19T16:23:52;95594.91;;;-1.57;100.00
11001;BME280;5553;48.506;8.870;2023-01-19T16:26:31;95598.44;;;-1.58;100.00
11001;BME280;5553;48.506;8.870;2023-01-19T16:29:05;95598.44;;;-1.58;100.00
11001;BME280;5553;48.506;8.870;2023-01-19T16:31:35;95596.66;;;-1.57;100.00
11001;BME280;5553;48.506;8.870;2023-01-19T16:34:03;95599.81;;;-1.63;100.00
11001;BME280;5553;48.506;8.870;2023-01-19T16:36:33;95598.44;;;-1.68;100.00
11001;BME280;5553;48.506;8.870;2023-01-19T16:39:04;95600.09;;;-1.67;100.00
11001;BME280;5553;48.506;8.870;2023-01-19T16:41:33;95603.06;;;-1.71;100.00
11001;BME280;5553;48.506;8.870;2023-01-19T16:44:09;95607.16;;;-1.69;100.00
11001;BME280;5553;48.506;8.870;2023-01-19T16:46:40;95609.34;;;-1.64;100.00
11001;BME280;5553;48.506;8.870;2023-01-19T16:51:37;95609.63;;;-1.67;100.00
11001;BME280;5553;48.506;8.870;2023-01-19T16:56:33;95604.84;;;-1.72;100.00
11001;BME280;5553;48.506;8.870;2023-01-19T17:01:31;95601.19;;;-1.69;100.00
11001;BME280;5553;48.506;8.870;2023-01-19T17:04:00;95592.44;;;-1.68;100.00
11001;BME280;5553;48.506;8.870;2023-01-19T17:06:29;95602.41;;;-1.73;100.00
11001;BME280;5553;48.506;8.870;2023-01-19T17:08:58;95602.69;;;-1.76;100.00
11001;BME280;5553;48.506;8.870;2023-01-19T17:11:28;95596.00;;;-1.79;100.00
11001;BME280;5553;48.506;8.870;2023-01-19T17:13:59;95605.66;;;-1.71;100.00
11001;BME280;5553;48.506;8.870;2023-01-19T17:16:31;95603.66;;;-1.77;100.00
11001;BME280;5553;48.506;8.870;2023-01-19T17:19:03;95596.53;;;-1.75;100.00
11001;BME280;5553;48.506;8.870;2023-01-19T17:21:32;95605.00;;;-1.73;100.00
11001;BME280;5553;48.506;8.870;2023-01-19T17:24:00;95601.19;;;-1.79;100.00
11001;BME280;5553;48.506;8.870;2023-01-19T17:26:28;95600.38;;;-1.79;100.00
11001;BME280;5553;48.506;8.870;2023-01-19T17:28:58;95598.06;;;-1.82;100.00
11001;BME280;5553;48.506;8.870;2023-01-19T17:31:27;95592.22;;;-1.84;100.00
11001;BME280;5553;48.506;8.870;2023-01-19T17:33:59;95587.84;;;-1.94;100.00
11001;BME280;5553;48.506;8.870;2023-01-19T17:36:29;95586.78;;;-1.91;100.00
11001;BME280;5553;48.506;8.870;2023-01-19T17:38:59;95593.16;;;-1.95;100.00
11001;BME280;5553;48.506;8.870;2023-01-19T17:41:29;95597.13;;;-1.91;100.00
11001;BME280;5553;48.506;8.870;2023-01-19T17:43:59;95591.41;;;-2.04;100.00
11001;BME280;5553;48.506;8.870;2023-01-19T17:46:28;95594.09;;;-2.06;100.00
11001;BME280;5553;48.506;8.870;2023-01-19T17:49:01;95598.75;;;-2.00;100.00
11001;BME280;5553;48.506;8.870;2023-01-19T17:51:30;95597.81;;;-2.08;100.00
11001;BME280;5553;48.506;8.870;2023-01-19T17:53:58;95604.72;;;-2.09;100.00
11001;BME280;5553;48.506;8.870;2023-01-19T17:56:28;95608.25;;;-2.10;100.00
11001;BME280;5553;48.506;8.870;2023-01-19T17:59:01;95604.06;;;-2.11;100.00
11001;BME280;5553;48.506;8.870;2023-01-19T18:01:31;95610.44;;;-2.15;100.00
11001;BME280;5553;48.506;8.870;2023-01-19T18:04:04;95606.63;;;-2.11;100.00
11001;BME280;5553;48.506;8.870;2023-01-19T18:06:33;95608.25;;;-2.10;100.00
11001;BME280;5553;48.506;8.870;2023-01-19T18:09:01;95612.91;;;-2.04;100.00
11001;BME280;5553;48.506;8.870;2023-01-19T18:11:31;95618.88;;;-2.13;100.00
11001;BME280;5553;48.506;8.870;2023-01-19T18:13:59;95624.03;;;-2.13;100.00
11001;BME280;5553;48.506;8.870;2023-01-19T18:16:28;95628.81;;;-2.08;100.00
11001;BME280;5553;48.506;8.870;2023-01-19T18:18:57;95627.88;;;-1.98;100.00
11001;BME280;5553;48.506;8.870;2023-01-19T18:21:28;95627.19;;;-2.00;100.00
11001;BME280;5553;48.506;8.870;2023-01-19T18:24:00;95620.78;;;-1.96;100.00
11001;BME280;5553;48.506;8.870;2023-01-19T18:26:30;95625.84;;;-1.94;100.00
11001;BME280;5553;48.506;8.870;2023-01-19T18:28:59;95615.59;;;-1.96;100.00
11001;BME280;5553;48.506;8.870;2023-01-19T18:31:27;95616.84;;;-2.00;100.00
11001;BME280;5553;48.506;8.870;2023-01-19T18:33:55;95618.72;;;-2.02;100.00
11001;BME280;5553;48.506;8.870;2023-01-19T18:36:24;95608.13;;;-1.99;100.00
11001;BME280;5553;48.506;8.870;2023-01-19T18:38:54;95611.94;;;-1.93;100.00
11001;BME280;5553;48.506;8.870;2023-01-19T18:41:23;95610.16;;;-1.93;100.00
11001;BME280;5553;48.506;8.870;2023-01-19T18:43:55;95615.75;;;-1.87;100.00
11001;BME280;5553;48.506;8.870;2023-01-19T18:46:24;95616.72;;;-1.98;100.00
11001;BME280;5553;48.506;8.870;2023-01-19T18:48:53;95618.47;;;-1.89;100.00
11001;BME280;5553;48.506;8.870;2023-01-19T18:51:21;95627.31;;;-1.92;100.00
11001;BME280;5553;48.506;8.870;2023-01-19T18:53:50;95614.81;;;-1.86;100.00
11001;BME280;5553;48.506;8.870;2023-01-19T18:56:21;95616.44;;;-1.85;100.00
11001;BME280;5553;48.506;8.870;2023-01-19T18:58:49;95618.06;;;-1.94;100.00
11001;BME280;5553;48.506;8.870;2023-01-19T19:01:20;95618.47;;;-1.89;100.00
11001;BME280;5553;48.506;8.870;2023-01-19T19:03:49;95622.44;;;-1.95;100.00
11001;BME280;5553;48.506;8.870;2023-01-19T19:06:18;95620.50;;;-2.02;100.00
11001;BME280;5553;48.506;8.870;2023-01-19T19:08:47;95612.63;;;-2.01;100.00
11001;BME280;5553;48.506;8.870;2023-01-19T19:11:15;95612.91;;;-2.04;100.00
11001;BME280;5553;48.506;8.870;2023-01-19T19:13:50;95613.16;;;-2.07;100.00
11001;BME280;5553;48.506;8.870;2023-01-19T19:16:18;95610.16;;;-2.12;100.00
11001;BME280;5553;48.506;8.870;2023-01-19T19:18:46;95609.34;;;-2.12;100.00
11001;BME280;5553;48.506;8.870;2023-01-19T19:21:17;95609.88;;;-2.09;100.00
11001;BME280;5553;48.506;8.870;2023-01-19T19:23:49;95621.34;;;-2.11;100.00
11001;BME280;5553;48.506;8.870;2023-01-19T19:26:17;95606.63;;;-2.11;100.00
11001;BME280;5553;48.506;8.870;2023-01-19T19:28:48;95625.41;;;-1.89;100.00
11001;BME280;5553;48.506;8.870;2023-01-19T19:31:18;95620.94;;;-1.87;100.00
11001;BME280;5553;48.506;8.870;2023-01-19T19:33:48;95622.13;;;-1.92;100.00
11001;BME280;5553;48.506;8.870;2023-01-19T19:36:16;95630.06;;;-1.74;100.00
11001;BME280;5553;48.506;8.870;2023-01-19T19:38:45;95628.53;;;-1.76;100.00
11001;BME280;5553;48.506;8.870;2023-01-19T19:41:15;95630.84;;;-1.83;100.00
11001;BME280;5553;48.506;8.870;2023-01-19T19:43:43;95626.66;;;-1.94;100.00
11001;BME280;5553;48.506;8.870;2023-01-19T19:46:16;95629.50;;;-1.97;100.00
11001;BME280;5553;48.506;8.870;2023-01-19T19:48:45;95636.28;;;-1.96;100.00
11001;BME280;5553;48.506;8.870;2023-01-19T19:51:15;95633.03;;;-2.07;100.00
11001;BME280;5553;48.506;8.870;2023-01-19T19:53:47;95623.50;;;-2.17;100.00
11001;BME280;5553;48.506;8.870;2023-01-19T19:56:16;95630.44;;;-2.07;100.00
11001;BME280;5553;48.506;8.870;2023-01-19T19:58:46;95624.19;;;-2.05;100.00
11001;BME280;5553;48.506;8.870;2023-01-19T20:01:19;95628.53;;;-2.15;100.00
11001;BME280;5553;48.506;8.870;2023-01-19T20:03:48;95636.53;;;-2.28;100.00
11001;BME280;5553;48.506;8.870;2023-01-19T20:06:19;95640.09;;;-2.09;100.00
11001;BME280;5553;48.506;8.870;2023-01-19T20:08:48;95643.22;;;-2.06;100.00
11001;BME280;5553;48.506;8.870;2023-01-19T20:11:19;95640.25;;;-2.01;100.00
11001;BME280;5553;48.506;8.870;2023-01-19T20:13:47;95647.72;;;-2.08;100.00
11001;BME280;5553;48.506;8.870;2023-01-19T20:16:21;95640.63;;;-2.06;100.00